Disclaimer

Please do not use the information listed here in-flight or in-navigation, as they are not provided to us by the airports but are provided by volunteers, so they might be outdated.

Search


Regions


Airport information page

Radio informations:
CUSCO TWR - 118.1 MHz
Ground (GND) - 121.9 MHz
Automatic Terminal Information Service (ATIS) - 127.0 MHz
CUSCO APP - 120.6 MHz

Airport informations:
Latitude: 13° 32' 08.60" S
Longitude: 071° 56' 19.61" W
Elevation: 10860 feet - 3310 meters
Operating hours: Remarks
Operating agency: Civil government, landing fees and diplomatic clearance may be required
Timezone: UTC-5
Fuel: N/A

Runway information:
10/28 - 11146 x 148 feet< - >3397 x 45 meters

Recent METARs:
SPZO 211700Z VRB01KT 9999 SCT046 21/06 Q1030 NOSIG RMK BIRD HAZARD RWY 28 PP000
SPZO 211730Z 04003KT 9999 FEW040TCU SCT0100 22/05 Q1029 NOSIG RMK BIRD HAZARD RWY 28
SPZO 211800Z 17002KT 9999 FEW040TCU SCT100 21/04 Q1029 NOSIG RMK BIRD HAZARD RWY 28 PP000

Airport on the map: